Time;durP1;ratioP1;P1;durP2;ratioP2;P2;SDS_P1;SDS_P2;PMS_P1;PMS_P2;Temp;Humidity;BMP_temperature;BMP_pressure;BME280_temperature;BME280_humidity;BME280_pressure;Samples;Min_cycle;Max_cycle;Signal;HPM_P1;HPM_P2
2023/08/02 00:01:01;;;;;;;9.10;3.30;;;15.10;99.90;;;;;;5032091;28;20462;-75
2023/08/02 00:03:27;;;;;;;10.23;3.10;;;15.00;99.90;;;;;;5040184;28;20052;-75
2023/08/02 00:05:57;;;;;;;11.20;3.03;;;15.00;99.90;;;;;;5040547;28;20423;-76
2023/08/02 00:08:24;;;;;;;13.93;3.28;;;15.00;99.90;;;;;;5051354;28;20028;-75
2023/08/02 00:10:49;;;;;;;10.35;3.13;;;15.00;99.90;;;;;;5046662;28;20021;-75
2023/08/02 00:13:15;;;;;;;15.48;3.67;;;14.90;99.90;;;;;;5025652;28;20044;-75
2023/08/02 00:15:41;;;;;;;9.88;2.90;;;14.90;99.90;;;;;;5051345;28;20112;-75
2023/08/02 00:18:07;;;;;;;8.63;3.47;;;14.90;99.90;;;;;;5037487;28;20132;-75
2023/08/02 00:20:33;;;;;;;10.55;3.38;;;14.80;99.90;;;;;;5054232;28;20079;-75
2023/08/02 00:22:58;;;;;;;8.05;2.55;;;14.80;99.90;;;;;;5043198;28;20022;-75
2023/08/02 00:25:24;;;;;;;10.93;3.10;;;14.80;99.90;;;;;;5052037;28;20378;-75
2023/08/02 00:27:50;;;;;;;10.27;2.90;;;14.80;99.90;;;;;;5048716;28;20215;-75
2023/08/02 00:30:16;;;;;;;10.95;3.17;;;14.70;99.90;;;;;;5045917;28;20025;-75
2023/08/02 00:32:46;;;;;;;9.23;3.35;;;14.70;99.90;;;;;;5048184;28;20041;-75
2023/08/02 00:35:13;;;;;;;6.72;3.13;;;14.70;99.90;;;;;;5046152;28;20063;-75
2023/08/02 00:37:38;;;;;;;13.20;3.53;;;14.60;99.90;;;;;;5048902;28;20396;-75
2023/08/02 00:40:04;;;;;;;6.72;2.72;;;14.60;99.90;;;;;;5045879;28;20029;-76
2023/08/02 00:42:30;;;;;;;11.90;3.30;;;14.60;99.90;;;;;;5050877;28;20073;-75
2023/08/02 00:44:56;;;;;;;12.50;3.08;;;14.70;99.90;;;;;;5034835;28;20104;-76
2023/08/02 00:47:22;;;;;;;11.60;3.35;;;14.60;99.90;;;;;;5052394;28;20049;-75
2023/08/02 00:49:48;;;;;;;9.63;3.75;;;14.60;99.90;;;;;;5063647;28;20024;-76
2023/08/02 00:52:13;;;;;;;9.90;3.28;;;14.60;99.90;;;;;;5050606;28;20403;-75
2023/08/02 00:54:41;;;;;;;10.18;2.97;;;14.50;99.90;;;;;;5052408;28;20025;-75
2023/08/02 00:57:10;;;;;;;13.27;3.80;;;14.50;99.90;;;;;;5053455;28;20419;-75
2023/08/02 00:59:41;;;;;;;11.80;4.25;;;14.50;99.90;;;;;;5051631;28;20051;-75
2023/08/02 01:02:07;;;;;;;9.90;3.60;;;14.50;99.90;;;;;;5058998;28;20135;-75
2023/08/02 01:04:34;;;;;;;8.23;3.28;;;14.50;99.90;;;;;;5051328;28;20120;-75
2023/08/02 01:07:22;;;;;;;10.73;2.78;;;14.50;99.90;;;;;;5053043;28;20112;-75
2023/08/02 01:09:56;;;;;;;10.32;3.83;;;14.40;99.90;;;;;;5046826;28;20388;-76
2023/08/02 01:12:24;;;;;;;9.25;3.03;;;14.50;99.90;;;;;;5055228;28;20028;-75
2023/08/02 01:14:54;;;;;;;14.00;3.47;;;14.50;99.90;;;;;;5058014;28;20040;-76
2023/08/02 01:17:21;;;;;;;11.05;3.47;;;14.40;99.90;;;;;;5056933;28;20059;-75
2023/08/02 01:19:47;;;;;;;10.40;3.45;;;14.50;99.90;;;;;;5050517;28;20021;-76
2023/08/02 01:22:13;;;;;;;14.88;3.28;;;14.50;99.90;;;;;;5057653;28;20039;-75
2023/08/02 01:24:39;;;;;;;15.38;3.08;;;14.50;99.90;;;;;;5060153;28;20384;-76
2023/08/02 01:27:12;;;;;;;14.05;3.25;;;14.50;99.90;;;;;;5035769;28;20453;-75
2023/08/02 01:29:44;;;;;;;12.15;3.45;;;14.50;99.90;;;;;;5046751;28;20075;-75
2023/08/02 01:32:10;;;;;;;10.60;3.65;;;14.40;99.90;;;;;;5022674;28;20108;-76
2023/08/02 01:34:36;;;;;;;13.15;3.35;;;14.50;99.90;;;;;;5050938;28;20057;-75
2023/08/02 01:37:02;;;;;;;10.18;2.83;;;14.40;99.90;;;;;;5061346;28;20033;-75
2023/08/02 01:39:28;;;;;;;12.20;3.08;;;14.40;99.90;;;;;;5048451;28;20028;-75
2023/08/02 01:41:53;;;;;;;10.75;3.30;;;14.40;99.90;;;;;;5050420;28;20045;-75
2023/08/02 01:44:19;;;;;;;10.25;3.47;;;14.30;99.90;;;;;;5051229;28;20425;-75
2023/08/02 01:46:44;;;;;;;12.35;3.47;;;14.40;99.90;;;;;;5057111;28;20033;-76
2023/08/02 01:49:10;;;;;;;9.52;3.20;;;14.40;99.90;;;;;;5049365;28;20070;-76
2023/08/02 01:51:35;;;;;;;11.25;3.90;;;14.50;99.90;;;;;;5054462;28;20036;-76
2023/08/02 01:54:01;;;;;;;11.73;2.97;;;14.60;99.90;;;;;;5050434;28;20036;-76
2023/08/02 01:56:26;;;;;;;9.32;3.22;;;14.60;99.90;;;;;;5052481;28;20031;-75
2023/08/02 01:58:52;;;;;;;7.75;2.63;;;14.70;99.90;;;;;;5048715;28;20024;-75
2023/08/02 02:01:17;;;;;;;11.23;3.15;;;14.70;99.90;;;;;;5050591;28;20044;-75
2023/08/02 02:03:43;;;;;;;8.95;3.65;;;14.80;99.90;;;;;;5051007;28;20088;-75
2023/08/02 02:06:08;;;;;;;12.25;3.28;;;14.80;99.90;;;;;;5064716;28;20086;-75
2023/08/02 02:08:35;;;;;;;9.70;3.53;;;14.80;99.90;;;;;;5056639;28;20025;-75
2023/08/02 02:11:01;;;;;;;9.50;3.63;;;14.90;99.90;;;;;;5048937;28;20026;-75
2023/08/02 02:13:26;;;;;;;12.07;3.15;;;14.90;99.90;;;;;;5056290;28;20043;-75
2023/08/02 02:15:52;;;;;;;12.23;3.33;;;14.90;99.90;;;;;;5052284;28;20029;-75
2023/08/02 02:18:17;;;;;;;13.23;3.47;;;15.00;99.90;;;;;;5063624;28;20074;-75
2023/08/02 02:20:43;;;;;;;8.93;3.08;;;15.00;99.90;;;;;;5047543;28;20025;-75
2023/08/02 02:23:09;;;;;;;9.68;3.60;;;14.90;99.90;;;;;;5052119;28;20032;-75
2023/08/02 02:25:34;;;;;;;6.10;2.63;;;14.90;99.90;;;;;;5054962;28;20476;-75
2023/08/02 02:28:00;;;;;;;7.07;3.00;;;15.00;99.90;;;;;;5044522;28;20116;-75
2023/08/02 02:30:25;;;;;;;9.02;3.30;;;14.90;99.90;;;;;;5045450;28;20017;-75
2023/08/02 02:32:52;;;;;;;8.63;3.30;;;14.90;99.90;;;;;;5050725;28;20029;-75
2023/08/02 02:35:18;;;;;;;8.27;3.08;;;14.90;99.90;;;;;;5054160;28;20548;-75
2023/08/02 02:37:43;;;;;;;13.70;3.50;;;14.90;99.90;;;;;;5053105;28;20469;-75
2023/08/02 02:40:09;;;;;;;8.07;2.88;;;14.90;99.90;;;;;;5051426;28;20021;-75
2023/08/02 02:42:40;;;;;;;8.68;2.95;;;15.00;99.90;;;;;;5048105;28;20029;-75
2023/08/02 02:45:07;;;;;;;7.30;2.42;;;15.00;99.90;;;;;;5051552;28;20031;-75
2023/08/02 02:47:32;;;;;;;9.02;2.50;;;15.00;99.90;;;;;;5047005;28;20112;-75
2023/08/02 02:49:58;;;;;;;7.88;2.35;;;15.00;99.90;;;;;;5046645;28;20107;-75
2023/08/02 02:52:23;;;;;;;5.70;2.15;;;14.90;99.90;;;;;;5054477;28;20476;-75
2023/08/02 02:54:49;;;;;;;9.95;2.78;;;14.90;99.90;;;;;;5058954;28;20507;-75
2023/08/02 02:57:16;;;;;;;7.32;2.47;;;14.90;99.90;;;;;;5025931;28;20429;-75
2023/08/02 02:59:42;;;;;;;8.57;2.53;;;15.00;99.90;;;;;;5043067;28;20059;-74
2023/08/02 03:02:07;;;;;;;10.57;2.83;;;15.00;99.90;;;;;;5050370;28;20037;-75
2023/08/02 03:04:33;;;;;;;5.68;2.35;;;15.10;99.90;;;;;;5049453;28;20060;-75
2023/08/02 03:06:58;;;;;;;7.00;2.50;;;15.10;99.90;;;;;;5059989;28;20484;-75
2023/08/02 03:09:24;;;;;;;6.38;2.50;;;15.10;99.90;;;;;;5048506;28;20029;-75
2023/08/02 03:11:49;;;;;;;10.10;3.00;;;15.10;99.90;;;;;;5043378;28;20416;-75
2023/08/02 03:14:15;;;;;;;7.30;2.40;;;15.10;99.90;;;;;;5032231;28;20053;-75
2023/08/02 03:16:43;;;;;;;6.35;2.47;;;15.20;99.90;;;;;;5053123;28;20044;-75
2023/08/02 03:19:10;;;;;;;9.23;2.42;;;15.10;99.90;;;;;;5052460;28;20036;-75
2023/08/02 03:21:36;;;;;;;10.65;2.80;;;15.20;99.90;;;;;;5047377;28;20392;-75
2023/08/02 03:24:01;;;;;;;7.20;2.30;;;15.20;99.90;;;;;;5047106;28;20040;-75
2023/08/02 03:26:27;;;;;;;8.25;2.80;;;15.20;99.90;;;;;;5049134;28;20312;-75
2023/08/02 03:28:52;;;;;;;6.53;2.17;;;15.20;99.90;;;;;;5048312;28;20075;-75
2023/08/02 03:31:18;;;;;;;7.22;2.63;;;15.20;99.90;;;;;;5055184;28;20028;-75
2023/08/02 03:33:43;;;;;;;6.55;2.53;;;15.20;99.90;;;;;;5052476;28;20551;-75
2023/08/02 03:36:09;;;;;;;9.55;2.65;;;15.20;99.90;;;;;;5047536;28;20021;-75
2023/08/02 03:38:34;;;;;;;7.10;2.40;;;15.20;99.90;;;;;;5050896;28;20021;-75
2023/08/02 03:41:01;;;;;;;7.80;2.75;;;15.20;99.90;;;;;;5055222;28;20459;-75
2023/08/02 03:43:26;;;;;;;7.25;2.88;;;15.10;99.90;;;;;;5042106;28;20460;-75
2023/08/02 03:45:52;;;;;;;11.15;2.80;;;15.20;99.90;;;;;;5046284;28;20021;-75
2023/08/02 03:48:17;;;;;;;11.40;3.30;;;15.20;99.90;;;;;;5049561;28;20036;-75
2023/08/02 03:50:43;;;;;;;5.45;2.40;;;15.30;99.90;;;;;;5047185;28;20127;-75
2023/08/02 03:53:09;;;;;;;9.23;3.35;;;15.30;99.90;;;;;;5046315;28;20039;-75
2023/08/02 03:55:35;;;;;;;7.55;2.92;;;15.30;99.90;;;;;;5046799;28;20089;-75
2023/08/02 03:58:00;;;;;;;9.45;3.20;;;15.40;99.90;;;;;;5059519;28;20113;-75
2023/08/02 04:00:26;;;;;;;6.22;2.42;;;15.40;99.90;;;;;;5055429;28;20080;-76
2023/08/02 04:02:53;;;;;;;9.07;3.20;;;15.40;99.90;;;;;;5043362;28;20037;-75
2023/08/02 04:05:18;;;;;;;9.13;3.47;;;15.40;99.90;;;;;;5047806;28;20028;-75
2023/08/02 04:07:44;;;;;;;7.18;2.88;;;15.50;99.90;;;;;;5047056;28;20036;-75
2023/08/02 04:10:10;;;;;;;10.48;2.75;;;15.50;99.90;;;;;;5061285;28;20037;-75
2023/08/02 04:12:36;;;;;;;9.98;3.05;;;15.50;99.90;;;;;;5048495;28;20468;-75
2023/08/02 04:15:03;;;;;;;7.57;2.38;;;15.50;99.90;;;;;;5045928;28;20392;-76
2023/08/02 04:17:28;;;;;;;10.48;3.10;;;15.50;99.90;;;;;;5038405;28;20380;-75
2023/08/02 04:19:54;;;;;;;8.77;3.20;;;15.60;99.90;;;;;;5049752;28;20082;-75
2023/08/02 04:22:20;;;;;;;8.57;3.53;;;15.50;99.90;;;;;;5054415;28;20492;-75
2023/08/02 04:24:45;;;;;;;9.38;3.03;;;15.60;99.90;;;;;;5057467;28;20499;-75
2023/08/02 04:27:11;;;;;;;10.88;2.72;;;15.60;99.90;;;;;;5060823;28;20074;-75
2023/08/02 04:29:36;;;;;;;6.38;2.67;;;15.60;99.90;;;;;;5063090;28;20364;-73
2023/08/02 04:32:02;;;;;;;9.73;3.13;;;15.60;99.90;;;;;;5051791;28;20031;-74
2023/08/02 04:34:28;;;;;;;6.18;2.58;;;15.70;99.90;;;;;;5056536;28;20027;-74
2023/08/02 04:36:53;;;;;;;7.78;2.90;;;15.70;99.90;;;;;;5055898;28;20361;-74
2023/08/02 04:39:19;;;;;;;8.35;2.63;;;15.70;99.90;;;;;;5055725;28;20377;-74
2023/08/02 04:41:44;;;;;;;9.23;3.65;;;15.70;99.90;;;;;;5051122;28;20025;-74
2023/08/02 04:44:10;;;;;;;9.05;2.60;;;15.70;99.90;;;;;;5056749;28;20469;-74
2023/08/02 04:46:35;;;;;;;7.53;2.67;;;15.70;99.90;;;;;;5052403;28;20028;-74
2023/08/02 04:49:01;;;;;;;10.18;3.20;;;15.70;99.90;;;;;;5045097;28;20045;-74
2023/08/02 04:51:26;;;;;;;5.55;2.97;;;15.70;99.90;;;;;;5052557;28;20056;-74
2023/08/02 04:53:52;;;;;;;8.73;3.25;;;15.70;99.90;;;;;;5028988;28;20377;-74
2023/08/02 04:56:17;;;;;;;5.68;2.53;;;15.70;99.90;;;;;;5049041;28;20024;-74
2023/08/02 04:58:43;;;;;;;6.95;3.38;;;15.70;99.90;;;;;;5050910;28;20033;-74
2023/08/02 05:01:09;;;;;;;7.30;3.05;;;15.70;99.90;;;;;;5043801;28;20354;-74
2023/08/02 05:03:35;;;;;;;6.72;3.10;;;15.80;99.90;;;;;;5048325;28;20029;-75
2023/08/02 05:06:02;;;;;;;7.13;3.20;;;15.70;99.90;;;;;;5050739;28;20037;-74
2023/08/02 05:08:35;;;;;;;7.22;2.78;;;15.80;99.90;;;;;;5050133;28;20025;-74
2023/08/02 05:11:03;;;;;;;11.35;3.13;;;15.80;99.90;;;;;;5037712;28;20075;-74
2023/08/02 05:13:28;;;;;;;7.65;3.42;;;15.80;99.90;;;;;;5047159;28;20063;-74
2023/08/02 05:15:55;;;;;;;10.68;3.95;;;15.80;99.90;;;;;;5043320;28;20392;-75
2023/08/02 05:18:21;;;;;;;9.32;4.43;;;15.80;99.90;;;;;;5052628;28;20227;-75
2023/08/02 05:20:47;;;;;;;8.90;3.70;;;15.80;99.90;;;;;;5049793;28;20104;-75
2023/08/02 05:23:12;;;;;;;9.68;4.38;;;15.80;99.90;;;;;;5048748;28;20392;-74
2023/08/02 05:25:38;;;;;;;8.88;3.80;;;15.80;99.90;;;;;;5060570;28;20013;-75
2023/08/02 05:28:04;;;;;;;9.65;3.90;;;15.80;99.90;;;;;;5059787;28;20029;-75
2023/08/02 05:30:32;;;;;;;10.55;4.10;;;15.80;99.90;;;;;;5054059;28;20017;-75
2023/08/02 05:32:58;;;;;;;7.43;4.00;;;15.90;99.90;;;;;;5062292;28;20028;-75
2023/08/02 05:35:25;;;;;;;7.22;4.07;;;15.90;99.90;;;;;;5064970;28;20070;-74
2023/08/02 05:37:54;;;;;;;9.90;4.57;;;15.90;99.90;;;;;;5062254;28;20025;-75
2023/08/02 05:40:20;;;;;;;7.75;4.28;;;15.90;99.90;;;;;;5052925;28;20475;-74
2023/08/02 05:42:45;;;;;;;7.75;3.83;;;15.90;99.90;;;;;;5058269;28;20197;-75
2023/08/02 05:45:11;;;;;;;10.02;4.22;;;15.90;99.90;;;;;;5068275;28;20389;-75
2023/08/02 05:47:37;;;;;;;10.10;4.15;;;15.90;99.90;;;;;;5059636;28;20028;-74
2023/08/02 05:50:03;;;;;;;11.90;4.57;;;15.90;99.90;;;;;;5053056;28;20037;-75
2023/08/02 05:52:29;;;;;;;7.78;3.85;;;15.90;99.90;;;;;;5069125;28;20033;-74
2023/08/02 05:54:55;;;;;;;10.18;4.70;;;15.90;99.90;;;;;;5034480;28;20017;-75
2023/08/02 05:57:21;;;;;;;9.77;4.22;;;15.90;99.90;;;;;;5052887;28;20089;-76
2023/08/02 05:59:49;;;;;;;9.38;4.85;;;15.90;99.90;;;;;;5060280;28;20134;-76
2023/08/02 06:02:15;;;;;;;8.68;4.43;;;15.90;99.90;;;;;;5050007;28;20064;-77
2023/08/02 06:04:43;;;;;;;16.70;5.38;;;15.90;99.90;;;;;;5042157;28;20037;-76
2023/08/02 06:07:09;;;;;;;11.63;5.30;;;15.90;99.90;;;;;;5036324;28;20025;-75
2023/08/02 06:09:35;;;;;;;11.25;5.03;;;15.80;99.90;;;;;;5059769;28;20024;-76
2023/08/02 06:12:01;;;;;;;10.55;4.97;;;15.80;99.90;;;;;;5053074;28;20285;-75
2023/08/02 06:14:27;;;;;;;7.47;4.60;;;15.80;99.90;;;;;;5043086;28;20769;-75
2023/08/02 06:16:52;;;;;;;11.82;5.18;;;15.80;99.90;;;;;;5048400;28;20032;-75
2023/08/02 06:19:18;;;;;;;8.75;5.07;;;15.90;99.90;;;;;;5048266;28;20369;-76
2023/08/02 06:21:44;;;;;;;9.10;4.72;;;15.80;99.90;;;;;;5050805;28;20044;-76
2023/08/02 06:24:10;;;;;;;12.45;5.32;;;15.80;99.90;;;;;;5028649;28;20035;-76
2023/08/02 06:26:35;;;;;;;9.95;5.50;;;15.80;99.90;;;;;;5058783;28;20154;-76
2023/08/02 06:29:01;;;;;;;9.05;5.22;;;15.80;99.90;;;;;;5030380;28;20051;-74
2023/08/02 06:31:27;;;;;;;8.98;5.80;;;15.80;99.90;;;;;;5045101;28;20036;-75
2023/08/02 06:33:52;;;;;;;9.95;5.32;;;15.80;99.90;;;;;;5033408;28;20032;-75
2023/08/02 06:36:18;;;;;;;12.32;5.45;;;15.80;99.90;;;;;;5056738;28;20111;-75
2023/08/02 06:38:46;;;;;;;10.90;5.03;;;15.90;99.90;;;;;;5063616;28;20025;-76
2023/08/02 06:41:11;;;;;;;11.85;5.47;;;15.90;99.90;;;;;;5053947;28;20025;-75
2023/08/02 06:43:37;;;;;;;7.95;5.40;;;15.90;99.90;;;;;;5059196;28;20043;-76
2023/08/02 06:46:02;;;;;;;10.93;5.57;;;15.90;99.90;;;;;;5060961;28;20061;-76
2023/08/02 06:48:28;;;;;;;9.23;5.00;;;15.90;99.90;;;;;;5054364;28;20591;-75
2023/08/02 06:50:54;;;;;;;9.73;5.35;;;15.90;99.90;;;;;;5060733;28;20056;-75
2023/08/02 06:53:20;;;;;;;6.75;4.75;;;15.90;99.90;;;;;;5062279;28;20056;-75
2023/08/02 06:55:46;;;;;;;10.68;5.13;;;15.90;99.90;;;;;;5057078;28;20114;-75
2023/08/02 06:58:11;;;;;;;7.85;4.47;;;15.90;99.90;;;;;;5047242;28;20098;-75
2023/08/02 07:00:37;;;;;;;9.60;5.18;;;15.90;99.90;;;;;;5063693;28;20524;-74
2023/08/02 07:03:03;;;;;;;9.18;4.90;;;15.90;99.90;;;;;;5056706;28;20039;-76
2023/08/02 07:05:30;;;;;;;9.52;5.93;;;16.00;99.90;;;;;;5065123;28;20074;-77
2023/08/02 07:08:00;;;;;;;7.95;4.25;;;16.00;99.90;;;;;;5039746;28;20385;-76
2023/08/02 07:10:27;;;;;;;9.27;4.38;;;16.00;99.90;;;;;;5049867;28;20021;-76
2023/08/02 07:12:54;;;;;;;7.82;4.32;;;16.00;99.90;;;;;;5059427;28;20013;-76
2023/08/02 07:15:20;;;;;;;6.88;4.20;;;16.00;99.90;;;;;;5054927;28;20033;-76
2023/08/02 07:17:46;;;;;;;6.07;3.55;;;16.00;99.90;;;;;;5048778;28;20033;-76
2023/08/02 07:20:12;;;;;;;5.20;3.85;;;16.00;99.90;;;;;;5050921;28;20036;-75
2023/08/02 07:22:47;;;;;;;7.47;3.90;;;16.00;99.90;;;;;;5040968;28;20041;-75
2023/08/02 07:25:13;;;;;;;4.60;3.42;;;16.10;99.90;;;;;;5046991;28;20479;-76
2023/08/02 07:27:38;;;;;;;5.03;2.97;;;16.10;99.90;;;;;;5057281;28;20511;-74
2023/08/02 07:30:04;;;;;;;5.18;3.10;;;16.20;99.90;;;;;;5053179;28;20044;-74
2023/08/02 07:32:33;;;;;;;5.53;2.72;;;16.30;99.90;;;;;;5049492;28;20022;-76
2023/08/02 07:34:59;;;;;;;3.47;2.28;;;16.30;99.90;;;;;;5031693;28;20032;-76
2023/08/02 07:37:24;;;;;;;4.60;3.00;;;16.40;99.90;;;;;;5048457;28;20033;-76
2023/08/02 07:39:50;;;;;;;3.22;1.85;;;16.30;99.90;;;;;;5049730;28;20039;-75
2023/08/02 07:42:16;;;;;;;4.93;2.13;;;16.30;99.90;;;;;;5048946;28;20563;-75
2023/08/02 07:44:42;;;;;;;2.67;2.00;;;16.40;99.90;;;;;;5062315;28;20021;-74
2023/08/02 07:47:08;;;;;;;2.38;1.80;;;16.40;99.90;;;;;;5050919;28;20366;-75
2023/08/02 07:49:34;;;;;;;2.88;1.65;;;16.40;99.90;;;;;;5050287;28;20037;-75
2023/08/02 07:52:00;;;;;;;3.20;1.90;;;16.40;99.90;;;;;;5045516;28;20039;-76
2023/08/02 07:54:26;;;;;;;2.90;1.75;;;16.40;99.90;;;;;;5054799;28;20036;-76
2023/08/02 07:56:51;;;;;;;3.30;1.73;;;16.40;99.90;;;;;;5049169;28;20099;-77
2023/08/02 07:59:17;;;;;;;2.53;1.65;;;16.40;99.90;;;;;;5052438;28;20029;-75
2023/08/02 08:01:43;;;;;;;2.92;1.23;;;16.50;99.90;;;;;;5052529;28;20045;-76
2023/08/02 08:04:09;;;;;;;3.15;1.42;;;16.50;99.90;;;;;;5051276;28;20025;-76
2023/08/02 08:06:34;;;;;;;2.20;1.00;;;16.60;99.90;;;;;;5060106;28;20037;-75
2023/08/02 08:09:00;;;;;;;2.55;1.33;;;16.60;99.90;;;;;;5057456;28;20114;-77
2023/08/02 08:11:29;;;;;;;2.65;1.40;;;16.60;99.90;;;;;;5047247;28;20025;-75
2023/08/02 08:13:55;;;;;;;2.40;1.17;;;16.60;99.90;;;;;;5054142;28;20055;-76
2023/08/02 08:16:20;;;;;;;2.72;0.90;;;16.60;99.90;;;;;;5060135;28;20094;-75
2023/08/02 08:18:46;;;;;;;2.38;1.02;;;16.60;99.90;;;;;;5049183;28;20024;-76
2023/08/02 08:21:12;;;;;;;2.47;1.05;;;16.70;99.90;;;;;;5060632;28;20040;-75
2023/08/02 08:23:37;;;;;;;2.10;1.23;;;16.70;99.90;;;;;;5068968;28;20376;-76
2023/08/02 08:26:03;;;;;;;3.78;0.98;;;16.80;99.90;;;;;;5053150;28;20032;-75
2023/08/02 08:28:28;;;;;;;2.42;1.23;;;16.90;99.90;;;;;;5072509;28;20112;-76
2023/08/02 08:31:01;;;;;;;1.90;0.93;;;17.00;99.90;;;;;;5059231;28;20028;-75
2023/08/02 08:33:27;;;;;;;2.10;0.80;;;17.00;99.90;;;;;;5060064;28;20439;-76
2023/08/02 08:35:53;;;;;;;1.95;1.00;;;17.00;99.90;;;;;;5060362;28;20543;-75
2023/08/02 08:38:18;;;;;;;1.45;0.70;;;17.00;99.90;;;;;;5073599;28;20158;-75
2023/08/02 08:40:55;;;;;;;1.20;0.80;;;17.00;99.90;;;;;;5059110;28;20033;-76
2023/08/02 08:43:25;;;;;;;1.70;0.88;;;17.00;99.90;;;;;;5051967;28;20087;-75
2023/08/02 08:45:52;;;;;;;1.70;0.85;;;17.00;99.90;;;;;;5044199;28;20029;-75
2023/08/02 08:48:19;;;;;;;2.75;0.80;;;16.90;99.90;;;;;;5052873;28;20033;-74
2023/08/02 08:50:46;;;;;;;2.53;0.90;;;17.00;99.90;;;;;;5059609;28;20044;-74
2023/08/02 08:53:19;;;;;;;2.08;1.20;;;16.90;99.90;;;;;;5058768;28;20032;-74
2023/08/02 08:55:52;;;;;;;2.63;1.15;;;16.90;99.90;;;;;;5062698;28;20017;-74
2023/08/02 08:58:18;;;;;;;2.05;1.45;;;16.90;99.90;;;;;;5052503;28;20036;-75
2023/08/02 09:00:44;;;;;;;1.75;1.10;;;17.00;99.90;;;;;;5049760;28;20207;-74
2023/08/02 09:03:12;;;;;;;2.10;1.40;;;17.00;99.90;;;;;;5070318;28;20028;-73
2023/08/02 09:05:39;;;;;;;1.70;1.00;;;17.10;99.90;;;;;;5068196;28;20021;-74
2023/08/02 09:08:05;;;;;;;2.13;1.30;;;17.10;99.90;;;;;;5062519;28;20482;-73
2023/08/02 09:10:34;;;;;;;2.83;1.33;;;17.20;99.90;;;;;;5068992;28;20036;-73
2023/08/02 09:13:00;;;;;;;1.90;1.20;;;17.30;99.90;;;;;;5059046;28;20515;-74
2023/08/02 09:15:25;;;;;;;3.20;1.48;;;17.40;99.90;;;;;;5059817;28;20021;-74
2023/08/02 09:17:53;;;;;;;2.67;1.45;;;17.50;99.90;;;;;;5055014;28;20531;-73
2023/08/02 09:20:21;;;;;;;2.15;1.63;;;17.60;99.90;;;;;;5044784;28;20032;-74
2023/08/02 09:22:47;;;;;;;2.08;1.50;;;17.60;99.90;;;;;;5058231;28;20036;-73
2023/08/02 09:25:22;;;;;;;3.10;2.08;;;17.80;99.90;;;;;;5061369;28;20072;-73
2023/08/02 09:27:48;;;;;;;2.53;1.92;;;18.00;99.90;;;;;;5048575;28;20029;-74
2023/08/02 09:30:23;;;;;;;3.35;1.80;;;18.30;99.90;;;;;;5062557;28;20035;-73
2023/08/02 09:33:09;;;;;;;3.38;1.85;;;18.50;99.90;;;;;;5059077;28;20013;-73
2023/08/02 09:35:53;;;;;;;2.75;1.95;;;18.60;99.90;;;;;;5055955;28;20087;-73
2023/08/02 09:38:19;;;;;;;2.80;1.73;;;18.70;99.90;;;;;;5063071;28;20029;-73
2023/08/02 09:40:48;;;;;;;2.17;1.75;;;18.70;99.90;;;;;;5054840;28;20497;-74
2023/08/02 09:43:17;;;;;;;3.05;2.42;;;18.80;99.90;;;;;;5053881;28;20112;-73
2023/08/02 09:45:43;;;;;;;2.83;2.17;;;18.80;99.90;;;;;;5057285;28;20025;-73
2023/08/02 09:48:08;;;;;;;3.17;2.85;;;19.00;99.90;;;;;;5059546;28;20068;-73
2023/08/02 09:50:51;;;;;;;3.85;3.17;;;19.20;99.90;;;;;;5054105;28;20033;-73
2023/08/02 09:53:16;;;;;;;4.38;3.15;;;19.50;99.90;;;;;;5056361;28;20029;-73
2023/08/02 09:55:46;;;;;;;3.60;3.30;;;19.60;99.90;;;;;;5049774;28;20025;-72
2023/08/02 09:58:12;;;;;;;3.75;3.45;;;19.80;99.90;;;;;;5050968;28;20113;-72
2023/08/02 10:00:39;;;;;;;4.03;3.63;;;19.90;99.90;;;;;;5056994;28;20298;-72
2023/08/02 10:03:06;;;;;;;4.65;3.28;;;20.00;99.90;;;;;;5037346;28;20048;-73
2023/08/02 10:05:34;;;;;;;3.33;3.03;;;20.00;99.90;;;;;;5067301;28;20141;-73
2023/08/02 10:08:01;;;;;;;3.67;3.35;;;20.00;99.90;;;;;;5059496;28;20029;-73
2023/08/02 10:10:35;;;;;;;3.35;3.10;;;20.00;99.90;;;;;;5060321;28;20530;-73
2023/08/02 10:13:19;;;;;;;3.53;3.10;;;20.00;99.90;;;;;;5050015;28;20033;-74
2023/08/02 10:15:49;;;;;;;5.18;3.40;;;20.10;99.90;;;;;;5043404;28;20025;-74
2023/08/02 10:18:16;;;;;;;3.90;3.60;;;20.00;99.90;;;;;;5049937;28;20017;-73
2023/08/02 10:20:43;;;;;;;3.63;3.33;;;20.20;99.90;;;;;;5048862;28;20033;-73
2023/08/02 10:23:08;;;;;;;3.50;3.20;;;20.30;99.90;;;;;;5040330;28;20271;-73
2023/08/02 10:25:36;;;;;;;3.28;2.95;;;20.40;99.90;;;;;;5030679;28;20021;-73
2023/08/02 10:28:03;;;;;;;2.47;2.28;;;20.50;99.90;;;;;;5034022;28;20098;-73
2023/08/02 10:30:30;;;;;;;2.70;2.50;;;20.50;99.90;;;;;;5062127;28;20059;-74
2023/08/02 10:33:18;;;;;;;2.67;2.47;;;20.70;99.90;;;;;;5058771;28;20115;-73
2023/08/02 10:36:05;;;;;;;5.32;3.40;;;20.70;99.90;;;;;;5045143;28;20021;-73
2023/08/02 10:38:37;;;;;;;3.80;3.50;;;20.80;99.90;;;;;;5042821;28;20051;-75
2023/08/02 10:41:05;;;;;;;2.63;2.42;;;20.80;99.90;;;;;;5015881;28;20378;-73
2023/08/02 10:43:31;;;;;;;3.80;2.45;;;20.80;99.90;;;;;;5047861;28;20527;-73
2023/08/02 10:46:17;;;;;;;2.50;2.30;;;20.80;99.90;;;;;;5052438;28;20025;-73
2023/08/02 10:48:42;;;;;;;2.47;1.83;;;20.90;99.90;;;;;;5046351;28;20029;-73
2023/08/02 10:51:32;;;;;;;1.77;1.10;;;21.00;99.90;;;;;;5056710;28;20036;-73
2023/08/02 10:54:21;;;;;;;1.15;0.70;;;21.00;99.90;;;;;;5052423;28;20025;-73
2023/08/02 10:56:54;;;;;;;1.00;0.80;;;21.00;99.90;;;;;;5024040;28;20457;-74
2023/08/02 10:59:23;;;;;;;1.70;1.20;;;21.00;99.90;;;;;;5054426;28;20021;-73
2023/08/02 11:01:56;;;;;;;1.23;0.93;;;21.10;99.90;;;;;;5021949;28;20441;-73
2023/08/02 11:04:23;;;;;;;1.85;1.20;;;21.30;99.90;;;;;;5050436;28;20380;-73
2023/08/02 11:06:48;;;;;;;2.30;1.77;;;21.40;99.90;;;;;;5056016;28;20021;-73
2023/08/02 11:09:14;;;;;;;2.70;1.65;;;21.40;99.90;;;;;;5057863;28;20048;-73
2023/08/02 11:11:39;;;;;;;1.60;1.45;;;21.40;99.90;;;;;;5057137;28;20013;-73
2023/08/02 11:14:05;;;;;;;2.47;1.52;;;21.30;99.90;;;;;;5054423;28;20384;-72
2023/08/02 11:16:39;;;;;;;2.30;1.88;;;21.10;99.90;;;;;;5061188;28;20021;-73
2023/08/02 11:19:11;;;;;;;4.03;1.77;;;21.10;99.90;;;;;;5053019;28;20046;-73
2023/08/02 11:21:37;;;;;;;4.93;1.58;;;21.00;99.90;;;;;;5051218;28;20098;-73
2023/08/02 11:24:03;;;;;;;2.78;1.50;;;20.80;99.90;;;;;;5064248;28;20036;-73
2023/08/02 11:26:30;;;;;;;4.25;1.35;;;20.70;99.90;;;;;;5052499;28;20115;-72
2023/08/02 11:28:56;;;;;;;2.72;1.27;;;20.60;99.90;;;;;;5067937;28;20021;-73
2023/08/02 11:31:26;;;;;;;6.07;1.60;;;20.40;99.90;;;;;;5059944;28;20055;-73
2023/08/02 11:33:52;;;;;;;3.47;1.00;;;20.30;99.90;;;;;;5047264;28;20433;-74
2023/08/02 11:36:18;;;;;;;1.52;0.80;;;20.20;99.90;;;;;;5050559;28;20040;-73
2023/08/02 11:38:44;;;;;;;4.28;0.70;;;20.20;99.90;;;;;;5037838;28;20109;-73
2023/08/02 11:41:20;;;;;;;1.50;0.50;;;20.10;99.90;;;;;;5049298;28;20043;-73
2023/08/02 11:43:46;;;;;;;0.98;0.50;;;20.00;99.90;;;;;;5048995;28;20071;-73
2023/08/02 11:46:25;;;;;;;1.38;0.50;;;19.80;99.90;;;;;;5051195;28;20025;-73
2023/08/02 11:48:51;;;;;;;1.25;0.50;;;19.80;99.90;;;;;;5052111;28;20040;-74
2023/08/02 11:51:19;;;;;;;2.20;0.40;;;19.70;99.90;;;;;;5056075;28;20472;-73
2023/08/02 11:53:55;;;;;;;2.78;0.40;;;19.70;99.90;;;;;;5053003;28;20025;-73
2023/08/02 11:56:21;;;;;;;0.70;0.40;;;19.80;99.90;;;;;;5049695;28;20032;-74
2023/08/02 11:58:48;;;;;;;0.70;0.20;;;20.10;99.90;;;;;;5063300;28;20055;-73
2023/08/02 12:01:14;;;;;;;0.75;0.30;;;20.30;99.90;;;;;;5053073;28;20040;-73
2023/08/02 12:03:52;;;;;;;1.80;0.50;;;20.40;99.90;;;;;;5049722;28;20021;-73
2023/08/02 12:06:17;;;;;;;4.05;0.90;;;20.60;99.90;;;;;;5044153;28;20071;-73
2023/08/02 12:08:53;;;;;;;2.10;0.82;;;20.70;99.90;;;;;;5052574;28;20037;-73
2023/08/02 12:11:20;;;;;;;4.25;0.85;;;20.90;99.90;;;;;;5060380;28;20096;-73
2023/08/02 12:13:46;;;;;;;2.08;0.80;;;21.00;99.90;;;;;;5046234;28;20025;-73
2023/08/02 12:16:13;;;;;;;2.47;1.05;;;21.20;99.90;;;;;;5061627;28;20103;-73
2023/08/02 12:18:52;;;;;;;2.53;0.95;;;21.30;99.90;;;;;;5047133;28;20575;-73
2023/08/02 12:21:18;;;;;;;4.57;1.10;;;21.60;99.90;;;;;;5056520;28;20066;-73
2023/08/02 12:23:44;;;;;;;4.43;1.23;;;21.70;99.90;;;;;;5052440;28;20044;-73
2023/08/02 12:26:10;;;;;;;2.65;0.73;;;21.80;99.90;;;;;;5048807;28;20064;-73
2023/08/02 12:28:46;;;;;;;4.10;0.80;;;21.70;99.90;;;;;;5056942;28;20021;-73
2023/08/02 12:31:12;;;;;;;4.38;0.70;;;21.70;99.90;;;;;;5052309;28;20028;-73
2023/08/02 12:33:37;;;;;;;2.75;0.70;;;21.70;99.90;;;;;;5052642;28;20376;-72
2023/08/02 12:36:07;;;;;;;7.45;0.70;;;21.80;99.90;;;;;;5060769;28;20725;-72
2023/08/02 12:38:33;;;;;;;7.30;1.45;;;21.90;99.90;;;;;;5060356;28;20032;-73
2023/08/02 12:41:00;;;;;;;4.50;1.40;;;22.00;99.90;;;;;;5058593;28;20448;-73
2023/08/02 12:43:27;;;;;;;4.28;0.85;;;22.20;99.90;;;;;;5058617;28;20057;-73
2023/08/02 12:45:53;;;;;;;4.43;0.55;;;22.30;99.90;;;;;;5058290;28;20013;-73